Aalborg, Denmark

1:37 PM CEST on July 11, 2014 (GMT +0200)
Aalborg (EKYT) Elev 10 ft | 57.10 °N, 9.85 °E | Change Station

Current weather conditions updated 17 minutes ago

Clear
Clear
81 °F
Feels Like 81 °F
N
8
Wind Variable Wind from East

Today is forecast to be Cooler than yesterday.

Today
High -- | Low -- °F
--% Chance of Precip.
Yesterday
High -- | Low -- °F
Precip. -- in
4:41 AM 10:09 PM
Waxing Gibbous, 99% visible
Pressure 30.06 in
Visibility -9999.0 miles
Clouds
Heat Index 81 °F
Dew Point 59 °F
Humidity 48%
Rainfall 0.00 in
Snow Depth Not available.
UV Not available.
Pollen Not available.
Air Quality Not available.
Flu Activity Not available.
METAR EKYT 111120Z 09007KT 060V140 CAVOK 27/15 Q1018 RMK FEW110

More Conditions Fewer Conditions

Pressure 30.06 in
Visibility -9999.0 miles
Clouds
Heat Index 81 °F
Dew Point 59 °F
Humidity 48%
Rainfall 0.00 in
Snow Depth Not available.
UV Not available.
Pollen Not available.
Air Quality Not available.
Flu Activity Not available.
METAR EKYT 111120Z 09007KT 060V140 CAVOK 27/15 Q1018 RMK FEW110

More Conditions Fewer Conditions

10-Day Weather Forecast

Almanac

Astronomy

Jul. 11, 2014 Rise Set
Actual Time 4:41 AM CEST 10:09 PM CEST
Civil Twilight 3:38 AM CEST 11:11 PM CEST
Nautical Twilight 1:58 AM CEST 12:53 AM CEST
Astronomical Twilight Sun does not rise Sun does not rise
Moon 8:46 PM CEST 3:51 AM CEST
Length of Visible Light 19h 32m
Length of Day
17h 27m
Tomorrow will be 2m 38s shorter.
Waxing Gibbous, 99% of the Moon is Illuminated
Today
Waxing Gibbous
Jul 12
Full
Jul 18
Last Quarter
Jul 26
New
Aug 3
First Quarter

Yesterday's Extremes

Country Highs Country Lows

Community

WunderPhotos

Upload Photos

1,732,425 photos uploaded!

WunderBlogs® & News

Nearby

Snow Depth

Not available.

Earthquake Activity

City Distance Mag. Time & Date
No recent earthquake activity has been reported nearby.
Minimum magnitude displayed is 2.5.

Coastal Water Temperatures

Place Temperature
No Stations Reporting

Nearby Weather Stations

Station Location Temp. Heat Index Dew Point Humidity Wind Precip. Elev Updated Type
Vester Hassing, Vodskov 80.6 °F 81 °F 59 °F 48% NW  at  8.0 mph 0.00 in / hr 39 ft 1:30 PM CEST Normal
Halvrimmen, Brovst 80.7 °F 82 °F 62 °F 52% NE  at  6.0 mph 0.00 in / hr 13 ft 1:34 PM CEST Normal
Aalborg, Jerslev 79.4 °F 80 °F 60 °F 52% NE  at  6.0 mph 0.00 in / hr 141 ft 1:30 PM CEST Normal
Haestrup, Hjoerring, Hjørring 77.4 °F 79 °F 58 °F 52% ENE  at  3.0 mph 0.00 in / hr 59 ft 1:28 PM CEST Normal

Show More Stations Show Fewer Stations